sensor_id;sensor_type;location;lat;lon;timestamp;P1;durP1;ratioP1;P2;durP2;ratioP2
31126;SDS011;17775;57.948;12.514;2023-12-20T00:01:02;3.08;;;1.00;;
31126;SDS011;17775;57.948;12.514;2023-12-20T00:03:29;4.82;;;1.33;;
31126;SDS011;17775;57.948;12.514;2023-12-20T00:06:07;3.90;;;1.65;;
31126;SDS011;17775;57.948;12.514;2023-12-20T00:08:33;4.32;;;1.45;;
31126;SDS011;17775;57.948;12.514;2023-12-20T00:10:59;3.60;;;1.00;;
31126;SDS011;17775;57.948;12.514;2023-12-20T00:13:26;3.92;;;1.10;;
31126;SDS011;17775;57.948;12.514;2023-12-20T00:15:52;3.97;;;1.02;;
31126;SDS011;17775;57.948;12.514;2023-12-20T00:18:19;2.72;;;1.13;;
31126;SDS011;17775;57.948;12.514;2023-12-20T00:20:46;2.33;;;1.10;;
31126;SDS011;17775;57.948;12.514;2023-12-20T00:23:12;5.25;;;1.77;;
31126;SDS011;17775;57.948;12.514;2023-12-20T00:25:38;4.97;;;2.55;;
31126;SDS011;17775;57.948;12.514;2023-12-20T00:28:05;4.95;;;1.38;;
31126;SDS011;17775;57.948;12.514;2023-12-20T00:30:32;2.30;;;0.90;;
31126;SDS011;17775;57.948;12.514;2023-12-20T00:32:58;2.83;;;1.00;;
31126;SDS011;17775;57.948;12.514;2023-12-20T00:35:25;3.50;;;1.10;;
31126;SDS011;17775;57.948;12.514;2023-12-20T00:37:51;3.22;;;1.52;;
31126;SDS011;17775;57.948;12.514;2023-12-20T00:40:17;3.05;;;1.10;;
31126;SDS011;17775;57.948;12.514;2023-12-20T00:42:44;1.95;;;1.10;;
31126;SDS011;17775;57.948;12.514;2023-12-20T00:45:13;4.03;;;1.10;;
31126;SDS011;17775;57.948;12.514;2023-12-20T00:47:40;3.75;;;1.35;;
31126;SDS011;17775;57.948;12.514;2023-12-20T00:50:07;1.25;;;0.77;;
31126;SDS011;17775;57.948;12.514;2023-12-20T00:52:34;2.38;;;1.05;;
31126;SDS011;17775;57.948;12.514;2023-12-20T00:55:00;3.60;;;1.77;;
31126;SDS011;17775;57.948;12.514;2023-12-20T00:57:27;3.78;;;1.17;;
31126;SDS011;17775;57.948;12.514;2023-12-20T00:59:53;2.22;;;0.90;;
31126;SDS011;17775;57.948;12.514;2023-12-20T01:02:20;2.65;;;1.27;;
31126;SDS011;17775;57.948;12.514;2023-12-20T01:04:46;4.47;;;0.93;;
31126;SDS011;17775;57.948;12.514;2023-12-20T01:07:13;1.35;;;0.75;;
31126;SDS011;17775;57.948;12.514;2023-12-20T01:09:39;2.42;;;0.73;;
31126;SDS011;17775;57.948;12.514;2023-12-20T01:12:05;1.95;;;1.13;;
31126;SDS011;17775;57.948;12.514;2023-12-20T01:14:32;2.00;;;1.08;;
31126;SDS011;17775;57.948;12.514;2023-12-20T01:16:59;1.08;;;0.57;;
31126;SDS011;17775;57.948;12.514;2023-12-20T01:19:25;5.28;;;1.08;;
31126;SDS011;17775;57.948;12.514;2023-12-20T01:21:53;4.25;;;1.20;;
31126;SDS011;17775;57.948;12.514;2023-12-20T01:24:19;3.67;;;1.15;;
31126;SDS011;17775;57.948;12.514;2023-12-20T01:26:46;3.75;;;1.48;;
31126;SDS011;17775;57.948;12.514;2023-12-20T01:29:12;3.13;;;1.30;;
31126;SDS011;17775;57.948;12.514;2023-12-20T01:31:40;5.95;;;1.17;;
31126;SDS011;17775;57.948;12.514;2023-12-20T01:34:07;4.45;;;1.20;;
31126;SDS011;17775;57.948;12.514;2023-12-20T01:36:33;5.13;;;1.35;;
31126;SDS011;17775;57.948;12.514;2023-12-20T01:39:00;4.88;;;1.50;;
31126;SDS011;17775;57.948;12.514;2023-12-20T01:41:28;5.25;;;1.50;;
31126;SDS011;17775;57.948;12.514;2023-12-20T01:43:54;7.50;;;2.42;;
31126;SDS011;17775;57.948;12.514;2023-12-20T01:46:21;5.47;;;1.35;;
31126;SDS011;17775;57.948;12.514;2023-12-20T01:48:48;12.48;;;2.20;;
31126;SDS011;17775;57.948;12.514;2023-12-20T01:51:15;6.63;;;1.83;;
31126;SDS011;17775;57.948;12.514;2023-12-20T01:53:41;5.32;;;1.42;;
31126;SDS011;17775;57.948;12.514;2023-12-20T01:56:08;4.03;;;1.65;;
31126;SDS011;17775;57.948;12.514;2023-12-20T01:58:36;5.07;;;1.63;;
31126;SDS011;17775;57.948;12.514;2023-12-20T02:01:05;4.82;;;1.40;;
31126;SDS011;17775;57.948;12.514;2023-12-20T02:03:31;2.92;;;1.20;;
31126;SDS011;17775;57.948;12.514;2023-12-20T02:05:58;5.93;;;1.30;;
31126;SDS011;17775;57.948;12.514;2023-12-20T02:08:24;4.55;;;1.70;;
31126;SDS011;17775;57.948;12.514;2023-12-20T02:10:51;5.13;;;1.25;;
31126;SDS011;17775;57.948;12.514;2023-12-20T02:13:17;4.22;;;1.60;;
31126;SDS011;17775;57.948;12.514;2023-12-20T02:15:44;5.70;;;1.67;;
31126;SDS011;17775;57.948;12.514;2023-12-20T02:18:10;4.18;;;1.40;;
31126;SDS011;17775;57.948;12.514;2023-12-20T02:20:36;6.43;;;2.03;;
31126;SDS011;17775;57.948;12.514;2023-12-20T02:23:03;4.10;;;1.42;;
31126;SDS011;17775;57.948;12.514;2023-12-20T02:25:29;3.42;;;1.30;;
31126;SDS011;17775;57.948;12.514;2023-12-20T02:27:56;4.03;;;1.40;;
31126;SDS011;17775;57.948;12.514;2023-12-20T02:30:22;4.10;;;1.20;;
31126;SDS011;17775;57.948;12.514;2023-12-20T02:32:49;5.80;;;1.55;;
31126;SDS011;17775;57.948;12.514;2023-12-20T02:35:16;2.38;;;1.20;;
31126;SDS011;17775;57.948;12.514;2023-12-20T02:37:42;3.88;;;1.40;;
31126;SDS011;17775;57.948;12.514;2023-12-20T02:40:09;3.65;;;1.10;;
31126;SDS011;17775;57.948;12.514;2023-12-20T02:42:36;4.68;;;1.45;;
31126;SDS011;17775;57.948;12.514;2023-12-20T02:45:03;8.98;;;1.88;;
31126;SDS011;17775;57.948;12.514;2023-12-20T02:47:29;6.53;;;1.88;;
31126;SDS011;17775;57.948;12.514;2023-12-20T02:49:56;7.20;;;1.92;;
31126;SDS011;17775;57.948;12.514;2023-12-20T02:52:23;11.40;;;1.75;;
31126;SDS011;17775;57.948;12.514;2023-12-20T02:54:50;5.10;;;1.42;;
31126;SDS011;17775;57.948;12.514;2023-12-20T02:57:16;4.13;;;1.60;;
31126;SDS011;17775;57.948;12.514;2023-12-20T02:59:43;7.75;;;1.70;;
31126;SDS011;17775;57.948;12.514;2023-12-20T03:02:09;3.97;;;1.50;;
31126;SDS011;17775;57.948;12.514;2023-12-20T03:04:36;9.25;;;2.20;;
31126;SDS011;17775;57.948;12.514;2023-12-20T03:07:03;7.75;;;1.85;;
31126;SDS011;17775;57.948;12.514;2023-12-20T03:09:29;10.68;;;2.80;;
31126;SDS011;17775;57.948;12.514;2023-12-20T03:12:07;5.00;;;1.50;;
31126;SDS011;17775;57.948;12.514;2023-12-20T03:14:33;4.57;;;1.30;;
31126;SDS011;17775;57.948;12.514;2023-12-20T03:17:00;7.72;;;1.80;;
31126;SDS011;17775;57.948;12.514;2023-12-20T03:19:26;4.95;;;1.50;;
31126;SDS011;17775;57.948;12.514;2023-12-20T03:21:53;4.57;;;1.50;;
31126;SDS011;17775;57.948;12.514;2023-12-20T03:24:20;8.85;;;1.80;;
31126;SDS011;17775;57.948;12.514;2023-12-20T03:26:46;4.00;;;1.23;;
31126;SDS011;17775;57.948;12.514;2023-12-20T03:29:12;3.45;;;1.23;;
31126;SDS011;17775;57.948;12.514;2023-12-20T03:31:39;3.15;;;1.25;;
31126;SDS011;17775;57.948;12.514;2023-12-20T03:34:05;3.63;;;1.27;;
31126;SDS011;17775;57.948;12.514;2023-12-20T03:36:32;4.28;;;1.13;;
31126;SDS011;17775;57.948;12.514;2023-12-20T03:38:58;5.97;;;1.50;;
31126;SDS011;17775;57.948;12.514;2023-12-20T03:41:24;4.60;;;1.40;;
31126;SDS011;17775;57.948;12.514;2023-12-20T03:43:51;5.03;;;1.40;;
31126;SDS011;17775;57.948;12.514;2023-12-20T03:46:17;4.22;;;1.02;;
31126;SDS011;17775;57.948;12.514;2023-12-20T03:48:44;8.77;;;1.92;;
31126;SDS011;17775;57.948;12.514;2023-12-20T03:51:10;3.60;;;1.00;;
31126;SDS011;17775;57.948;12.514;2023-12-20T03:53:37;1.63;;;0.88;;
31126;SDS011;17775;57.948;12.514;2023-12-20T03:56:03;2.72;;;1.13;;
31126;SDS011;17775;57.948;12.514;2023-12-20T03:58:30;4.13;;;0.90;;
31126;SDS011;17775;57.948;12.514;2023-12-20T04:00:59;2.90;;;1.10;;
31126;SDS011;17775;57.948;12.514;2023-12-20T04:03:25;3.53;;;1.23;;
31126;SDS011;17775;57.948;12.514;2023-12-20T04:05:52;4.25;;;1.05;;
31126;SDS011;17775;57.948;12.514;2023-12-20T04:08:18;3.22;;;1.35;;
31126;SDS011;17775;57.948;12.514;2023-12-20T04:10:44;5.45;;;1.35;;
31126;SDS011;17775;57.948;12.514;2023-12-20T04:13:11;3.15;;;1.08;;
31126;SDS011;17775;57.948;12.514;2023-12-20T04:15:37;3.33;;;0.90;;
31126;SDS011;17775;57.948;12.514;2023-12-20T04:18:04;1.58;;;0.70;;
31126;SDS011;17775;57.948;12.514;2023-12-20T04:20:31;3.97;;;0.88;;
31126;SDS011;17775;57.948;12.514;2023-12-20T04:22:57;1.83;;;0.90;;
31126;SDS011;17775;57.948;12.514;2023-12-20T04:25:24;1.88;;;0.70;;
31126;SDS011;17775;57.948;12.514;2023-12-20T04:27:50;2.63;;;0.80;;
31126;SDS011;17775;57.948;12.514;2023-12-20T04:30:17;3.28;;;0.90;;
31126;SDS011;17775;57.948;12.514;2023-12-20T04:32:43;3.63;;;0.85;;
31126;SDS011;17775;57.948;12.514;2023-12-20T04:35:10;3.08;;;1.15;;
31126;SDS011;17775;57.948;12.514;2023-12-20T04:37:36;2.20;;;0.70;;
31126;SDS011;17775;57.948;12.514;2023-12-20T04:40:03;2.17;;;0.70;;
31126;SDS011;17775;57.948;12.514;2023-12-20T04:42:33;2.35;;;0.82;;
31126;SDS011;17775;57.948;12.514;2023-12-20T04:44:59;7.05;;;1.40;;
31126;SDS011;17775;57.948;12.514;2023-12-20T04:47:26;3.08;;;0.75;;
31126;SDS011;17775;57.948;12.514;2023-12-20T04:49:52;1.92;;;0.77;;
31126;SDS011;17775;57.948;12.514;2023-12-20T04:52:19;2.00;;;0.70;;
31126;SDS011;17775;57.948;12.514;2023-12-20T04:54:45;3.30;;;1.05;;
31126;SDS011;17775;57.948;12.514;2023-12-20T04:57:12;2.55;;;0.90;;
31126;SDS011;17775;57.948;12.514;2023-12-20T04:59:38;2.60;;;0.90;;
31126;SDS011;17775;57.948;12.514;2023-12-20T05:02:05;1.88;;;0.90;;
31126;SDS011;17775;57.948;12.514;2023-12-20T05:04:31;1.85;;;0.60;;
31126;SDS011;17775;57.948;12.514;2023-12-20T05:06:58;1.27;;;0.65;;
31126;SDS011;17775;57.948;12.514;2023-12-20T05:09:24;1.67;;;0.68;;
31126;SDS011;17775;57.948;12.514;2023-12-20T05:11:51;4.03;;;1.15;;
31126;SDS011;17775;57.948;12.514;2023-12-20T05:14:17;2.10;;;0.70;;
31126;SDS011;17775;57.948;12.514;2023-12-20T05:16:44;1.20;;;0.70;;
31126;SDS011;17775;57.948;12.514;2023-12-20T05:19:10;3.50;;;1.13;;
31126;SDS011;17775;57.948;12.514;2023-12-20T05:21:37;1.05;;;0.70;;
31126;SDS011;17775;57.948;12.514;2023-12-20T05:24:07;4.50;;;0.93;;
31126;SDS011;17775;57.948;12.514;2023-12-20T05:26:33;2.17;;;0.93;;
31126;SDS011;17775;57.948;12.514;2023-12-20T05:29:00;2.22;;;0.80;;
31126;SDS011;17775;57.948;12.514;2023-12-20T05:31:26;0.95;;;0.60;;
31126;SDS011;17775;57.948;12.514;2023-12-20T05:33:52;3.60;;;0.80;;
31126;SDS011;17775;57.948;12.514;2023-12-20T05:36:19;2.50;;;0.65;;
31126;SDS011;17775;57.948;12.514;2023-12-20T05:38:46;2.63;;;0.85;;
31126;SDS011;17775;57.948;12.514;2023-12-20T05:41:12;4.25;;;0.82;;
31126;SDS011;17775;57.948;12.514;2023-12-20T05:43:39;1.67;;;0.77;;
31126;SDS011;17775;57.948;12.514;2023-12-20T05:46:06;6.00;;;1.20;;
31126;SDS011;17775;57.948;12.514;2023-12-20T05:48:32;2.10;;;0.90;;
31126;SDS011;17775;57.948;12.514;2023-12-20T05:50:59;1.98;;;0.90;;
31126;SDS011;17775;57.948;12.514;2023-12-20T05:53:25;1.95;;;0.70;;
31126;SDS011;17775;57.948;12.514;2023-12-20T05:55:52;4.07;;;1.20;;
31126;SDS011;17775;57.948;12.514;2023-12-20T05:58:18;3.15;;;0.95;;
31126;SDS011;17775;57.948;12.514;2023-12-20T06:00:44;3.10;;;0.98;;
31126;SDS011;17775;57.948;12.514;2023-12-20T06:03:14;3.78;;;1.10;;
31126;SDS011;17775;57.948;12.514;2023-12-20T06:05:40;3.60;;;1.10;;
31126;SDS011;17775;57.948;12.514;2023-12-20T06:08:07;2.47;;;1.20;;
31126;SDS011;17775;57.948;12.514;2023-12-20T06:10:33;3.65;;;1.00;;
31126;SDS011;17775;57.948;12.514;2023-12-20T06:13:00;3.30;;;0.95;;
31126;SDS011;17775;57.948;12.514;2023-12-20T06:15:27;1.85;;;0.80;;
31126;SDS011;17775;57.948;12.514;2023-12-20T06:17:53;2.40;;;1.10;;
31126;SDS011;17775;57.948;12.514;2023-12-20T06:20:20;2.00;;;0.77;;
31126;SDS011;17775;57.948;12.514;2023-12-20T06:22:46;4.20;;;1.17;;
31126;SDS011;17775;57.948;12.514;2023-12-20T06:25:13;5.57;;;1.35;;
31126;SDS011;17775;57.948;12.514;2023-12-20T06:27:39;4.50;;;1.20;;
31126;SDS011;17775;57.948;12.514;2023-12-20T06:30:07;3.00;;;1.33;;
31126;SDS011;17775;57.948;12.514;2023-12-20T06:32:35;1.70;;;0.77;;
31126;SDS011;17775;57.948;12.514;2023-12-20T06:35:02;7.05;;;1.40;;
31126;SDS011;17775;57.948;12.514;2023-12-20T06:37:29;2.85;;;1.10;;
31126;SDS011;17775;57.948;12.514;2023-12-20T06:39:55;2.40;;;0.80;;
31126;SDS011;17775;57.948;12.514;2023-12-20T06:42:23;1.83;;;0.70;;
31126;SDS011;17775;57.948;12.514;2023-12-20T06:44:49;5.15;;;0.90;;
31126;SDS011;17775;57.948;12.514;2023-12-20T06:47:16;3.13;;;1.13;;
31126;SDS011;17775;57.948;12.514;2023-12-20T06:49:42;2.38;;;0.90;;
31126;SDS011;17775;57.948;12.514;2023-12-20T06:52:09;6.03;;;1.90;;
31126;SDS011;17775;57.948;12.514;2023-12-20T06:54:36;3.72;;;1.00;;
31126;SDS011;17775;57.948;12.514;2023-12-20T06:57:03;3.55;;;1.52;;
31126;SDS011;17775;57.948;12.514;2023-12-20T06:59:31;3.85;;;1.10;;
31126;SDS011;17775;57.948;12.514;2023-12-20T07:02:00;1.48;;;1.00;;
31126;SDS011;17775;57.948;12.514;2023-12-20T07:04:27;3.95;;;1.00;;
31126;SDS011;17775;57.948;12.514;2023-12-20T07:06:53;1.50;;;0.70;;
31126;SDS011;17775;57.948;12.514;2023-12-20T07:09:23;7.28;;;1.20;;
31126;SDS011;17775;57.948;12.514;2023-12-20T07:11:50;4.20;;;0.95;;
31126;SDS011;17775;57.948;12.514;2023-12-20T07:14:16;2.78;;;0.90;;
31126;SDS011;17775;57.948;12.514;2023-12-20T07:16:43;4.57;;;1.30;;
31126;SDS011;17775;57.948;12.514;2023-12-20T07:19:12;4.15;;;0.90;;
31126;SDS011;17775;57.948;12.514;2023-12-20T07:21:39;3.28;;;1.42;;
31126;SDS011;17775;57.948;12.514;2023-12-20T07:24:05;3.00;;;1.10;;
31126;SDS011;17775;57.948;12.514;2023-12-20T07:26:32;3.88;;;1.08;;
31126;SDS011;17775;57.948;12.514;2023-12-20T07:28:58;4.97;;;0.90;;
31126;SDS011;17775;57.948;12.514;2023-12-20T07:31:25;6.47;;;1.05;;
31126;SDS011;17775;57.948;12.514;2023-12-20T07:33:51;3.60;;;1.02;;
31126;SDS011;17775;57.948;12.514;2023-12-20T07:36:19;2.10;;;0.70;;
31126;SDS011;17775;57.948;12.514;2023-12-20T07:38:48;5.20;;;1.10;;
31126;SDS011;17775;57.948;12.514;2023-12-20T07:41:14;1.98;;;1.10;;
31126;SDS011;17775;57.948;12.514;2023-12-20T07:43:42;2.15;;;0.85;;
31126;SDS011;17775;57.948;12.514;2023-12-20T07:46:08;3.35;;;1.00;;
31126;SDS011;17775;57.948;12.514;2023-12-20T07:48:35;2.05;;;0.73;;
31126;SDS011;17775;57.948;12.514;2023-12-20T07:51:02;2.33;;;0.82;;
31126;SDS011;17775;57.948;12.514;2023-12-20T07:53:29;5.20;;;0.80;;
31126;SDS011;17775;57.948;12.514;2023-12-20T07:55:55;3.20;;;0.77;;
31126;SDS011;17775;57.948;12.514;2023-12-20T07:58:22;3.38;;;0.85;;
31126;SDS011;17775;57.948;12.514;2023-12-20T08:01:01;3.13;;;1.30;;
31126;SDS011;17775;57.948;12.514;2023-12-20T08:03:28;4.05;;;1.10;;
31126;SDS011;17775;57.948;12.514;2023-12-20T08:05:54;1.55;;;0.95;;
31126;SDS011;17775;57.948;12.514;2023-12-20T08:08:21;6.75;;;1.17;;
31126;SDS011;17775;57.948;12.514;2023-12-20T08:10:47;3.65;;;0.98;;
31126;SDS011;17775;57.948;12.514;2023-12-20T08:13:14;1.90;;;0.80;;
31126;SDS011;17775;57.948;12.514;2023-12-20T08:15:40;4.68;;;1.40;;
31126;SDS011;17775;57.948;12.514;2023-12-20T08:18:06;4.35;;;1.10;;
31126;SDS011;17775;57.948;12.514;2023-12-20T08:20:33;3.97;;;1.10;;
31126;SDS011;17775;57.948;12.514;2023-12-20T08:23:06;5.50;;;1.45;;
31126;SDS011;17775;57.948;12.514;2023-12-20T08:25:32;4.45;;;1.17;;
31126;SDS011;17775;57.948;12.514;2023-12-20T08:27:59;4.78;;;1.33;;
31126;SDS011;17775;57.948;12.514;2023-12-20T08:30:25;5.07;;;1.25;;
31126;SDS011;17775;57.948;12.514;2023-12-20T08:32:52;5.35;;;1.42;;
31126;SDS011;17775;57.948;12.514;2023-12-20T08:35:18;5.72;;;1.20;;
31126;SDS011;17775;57.948;12.514;2023-12-20T08:37:46;6.28;;;1.35;;
31126;SDS011;17775;57.948;12.514;2023-12-20T08:40:12;3.25;;;1.20;;
31126;SDS011;17775;57.948;12.514;2023-12-20T08:42:39;5.72;;;1.88;;
31126;SDS011;17775;57.948;12.514;2023-12-20T08:45:06;3.10;;;1.15;;
31126;SDS011;17775;57.948;12.514;2023-12-20T08:47:34;5.72;;;1.67;;
31126;SDS011;17775;57.948;12.514;2023-12-20T08:50:02;5.05;;;1.30;;
31126;SDS011;17775;57.948;12.514;2023-12-20T08:52:29;3.85;;;1.33;;
31126;SDS011;17775;57.948;12.514;2023-12-20T08:54:55;3.85;;;1.23;;
31126;SDS011;17775;57.948;12.514;2023-12-20T08:57:22;4.22;;;1.17;;
31126;SDS011;17775;57.948;12.514;2023-12-20T08:59:51;3.88;;;1.33;;
31126;SDS011;17775;57.948;12.514;2023-12-20T09:02:18;4.55;;;1.30;;
31126;SDS011;17775;57.948;12.514;2023-12-20T09:04:46;4.63;;;1.10;;
31126;SDS011;17775;57.948;12.514;2023-12-20T09:07:23;4.60;;;1.20;;
31126;SDS011;17775;57.948;12.514;2023-12-20T09:09:50;3.45;;;1.05;;
31126;SDS011;17775;57.948;12.514;2023-12-20T09:12:17;3.83;;;1.20;;
31126;SDS011;17775;57.948;12.514;2023-12-20T09:14:44;7.35;;;1.52;;
31126;SDS011;17775;57.948;12.514;2023-12-20T09:17:11;3.35;;;1.10;;
31126;SDS011;17775;57.948;12.514;2023-12-20T09:19:38;2.97;;;1.25;;
31126;SDS011;17775;57.948;12.514;2023-12-20T09:22:05;4.28;;;1.50;;
31126;SDS011;17775;57.948;12.514;2023-12-20T09:24:32;4.97;;;1.40;;
31126;SDS011;17775;57.948;12.514;2023-12-20T09:26:58;5.65;;;1.80;;
31126;SDS011;17775;57.948;12.514;2023-12-20T09:29:25;5.53;;;1.50;;
31126;SDS011;17775;57.948;12.514;2023-12-20T09:31:51;6.60;;;1.70;;
31126;SDS011;17775;57.948;12.514;2023-12-20T09:34:18;2.80;;;1.25;;
31126;SDS011;17775;57.948;12.514;2023-12-20T09:36:45;5.15;;;1.33;;
31126;SDS011;17775;57.948;12.514;2023-12-20T09:39:13;10.02;;;2.47;;
31126;SDS011;17775;57.948;12.514;2023-12-20T09:41:44;5.45;;;1.70;;
31126;SDS011;17775;57.948;12.514;2023-12-20T09:46:37;6.75;;;1.95;;
31126;SDS011;17775;57.948;12.514;2023-12-20T09:49:06;5.05;;;2.38;;
31126;SDS011;17775;57.948;12.514;2023-12-20T09:51:32;10.10;;;2.22;;
31126;SDS011;17775;57.948;12.514;2023-12-20T09:53:59;5.55;;;1.77;;
31126;SDS011;17775;57.948;12.514;2023-12-20T09:56:28;6.38;;;2.28;;
31126;SDS011;17775;57.948;12.514;2023-12-20T09:58:55;5.72;;;2.00;;
31126;SDS011;17775;57.948;12.514;2023-12-20T10:01:22;7.53;;;2.13;;
31126;SDS011;17775;57.948;12.514;2023-12-20T10:03:50;9.93;;;2.58;;
31126;SDS011;17775;57.948;12.514;2023-12-20T10:06:17;5.97;;;1.90;;
31126;SDS011;17775;57.948;12.514;2023-12-20T10:08:44;10.45;;;2.15;;
31126;SDS011;17775;57.948;12.514;2023-12-20T10:11:10;4.22;;;1.73;;
31126;SDS011;17775;57.948;12.514;2023-12-20T10:13:40;4.28;;;1.85;;
31126;SDS011;17775;57.948;12.514;2023-12-20T10:16:10;7.65;;;2.78;;
31126;SDS011;17775;57.948;12.514;2023-12-20T10:18:37;5.80;;;2.13;;
31126;SDS011;17775;57.948;12.514;2023-12-20T10:21:06;6.28;;;1.83;;
31126;SDS011;17775;57.948;12.514;2023-12-20T10:23:32;5.97;;;1.73;;
31126;SDS011;17775;57.948;12.514;2023-12-20T10:25:59;5.82;;;1.80;;
31126;SDS011;17775;57.948;12.514;2023-12-20T10:28:26;4.75;;;1.65;;
31126;SDS011;17775;57.948;12.514;2023-12-20T10:30:55;8.00;;;2.08;;
31126;SDS011;17775;57.948;12.514;2023-12-20T10:33:30;4.20;;;1.77;;
31126;SDS011;17775;57.948;12.514;2023-12-20T10:36:01;4.93;;;1.95;;
31126;SDS011;17775;57.948;12.514;2023-12-20T10:38:27;7.85;;;2.00;;
31126;SDS011;17775;57.948;12.514;2023-12-20T10:40:56;4.70;;;1.70;;
31126;SDS011;17775;57.948;12.514;2023-12-20T10:43:25;5.05;;;1.70;;
31126;SDS011;17775;57.948;12.514;2023-12-20T10:45:53;5.93;;;2.03;;
31126;SDS011;17775;57.948;12.514;2023-12-20T10:48:19;8.85;;;2.40;;
31126;SDS011;17775;57.948;12.514;2023-12-20T10:50:47;6.55;;;2.55;;
31126;SDS011;17775;57.948;12.514;2023-12-20T10:53:13;4.35;;;1.92;;
31126;SDS011;17775;57.948;12.514;2023-12-20T10:55:41;6.18;;;2.15;;
31126;SDS011;17775;57.948;12.514;2023-12-20T10:58:09;3.88;;;1.80;;
31126;SDS011;17775;57.948;12.514;2023-12-20T11:00:40;4.63;;;1.90;;
31126;SDS011;17775;57.948;12.514;2023-12-20T11:03:10;6.00;;;2.20;;
31126;SDS011;17775;57.948;12.514;2023-12-20T11:08:40;7.95;;;2.75;;
31126;SDS011;17775;57.948;12.514;2023-12-20T11:11:17;5.75;;;2.15;;
31126;SDS011;17775;57.948;12.514;2023-12-20T11:13:55;5.43;;;2.33;;
31126;SDS011;17775;57.948;12.514;2023-12-20T11:16:22;7.47;;;2.13;;
31126;SDS011;17775;57.948;12.514;2023-12-20T11:18:51;5.03;;;1.98;;
31126;SDS011;17775;57.948;12.514;2023-12-20T11:21:18;5.28;;;2.70;;
31126;SDS011;17775;57.948;12.514;2023-12-20T11:23:45;7.47;;;2.47;;
31126;SDS011;17775;57.948;12.514;2023-12-20T11:26:11;5.13;;;2.38;;
31126;SDS011;17775;57.948;12.514;2023-12-20T11:28:41;7.40;;;2.60;;
31126;SDS011;17775;57.948;12.514;2023-12-20T11:31:08;4.88;;;2.38;;
31126;SDS011;17775;57.948;12.514;2023-12-20T11:33:37;4.97;;;2.35;;
31126;SDS011;17775;57.948;12.514;2023-12-20T11:36:12;5.57;;;2.83;;
31126;SDS011;17775;57.948;12.514;2023-12-20T11:38:39;7.35;;;3.53;;
31126;SDS011;17775;57.948;12.514;2023-12-20T11:41:15;9.18;;;3.03;;
31126;SDS011;17775;57.948;12.514;2023-12-20T11:43:41;7.45;;;3.40;;
31126;SDS011;17775;57.948;12.514;2023-12-20T11:46:08;6.38;;;3.15;;
31126;SDS011;17775;57.948;12.514;2023-12-20T11:48:39;7.97;;;3.20;;
31126;SDS011;17775;57.948;12.514;2023-12-20T11:51:10;14.20;;;4.63;;
31126;SDS011;17775;57.948;12.514;2023-12-20T11:53:37;8.68;;;3.72;;
31126;SDS011;17775;57.948;12.514;2023-12-20T11:56:05;10.93;;;3.65;;
31126;SDS011;17775;57.948;12.514;2023-12-20T11:58:32;8.15;;;4.15;;
31126;SDS011;17775;57.948;12.514;2023-12-20T12:00:58;9.02;;;4.13;;
31126;SDS011;17775;57.948;12.514;2023-12-20T12:03:25;7.50;;;4.28;;
31126;SDS011;17775;57.948;12.514;2023-12-20T12:05:52;8.38;;;3.60;;
31126;SDS011;17775;57.948;12.514;2023-12-20T12:08:18;7.93;;;3.60;;
31126;SDS011;17775;57.948;12.514;2023-12-20T12:10:45;7.75;;;3.45;;
31126;SDS011;17775;57.948;12.514;2023-12-20T12:13:11;5.53;;;3.05;;
31126;SDS011;17775;57.948;12.514;2023-12-20T12:15:38;6.55;;;3.03;;
31126;SDS011;17775;57.948;12.514;2023-12-20T12:18:05;6.80;;;2.95;;
31126;SDS011;17775;57.948;12.514;2023-12-20T12:20:32;9.13;;;3.38;;
31126;SDS011;17775;57.948;12.514;2023-12-20T12:23:04;3.92;;;2.70;;
31126;SDS011;17775;57.948;12.514;2023-12-20T12:25:31;6.68;;;3.50;;
31126;SDS011;17775;57.948;12.514;2023-12-20T12:27:58;5.97;;;3.40;;
31126;SDS011;17775;57.948;12.514;2023-12-20T12:30:25;7.35;;;3.80;;
31126;SDS011;17775;57.948;12.514;2023-12-20T12:32:58;7.47;;;3.97;;
31126;SDS011;17775;57.948;12.514;2023-12-20T12:35:24;12.00;;;5.13;;
31126;SDS011;17775;57.948;12.514;2023-12-20T12:37:51;11.48;;;5.50;;
31126;SDS011;17775;57.948;12.514;2023-12-20T12:40:17;12.55;;;5.63;;
31126;SDS011;17775;57.948;12.514;2023-12-20T12:42:44;11.63;;;4.95;;
31126;SDS011;17775;57.948;12.514;2023-12-20T12:45:11;12.75;;;5.80;;
31126;SDS011;17775;57.948;12.514;2023-12-20T12:47:37;12.23;;;4.78;;
31126;SDS011;17775;57.948;12.514;2023-12-20T12:50:04;7.68;;;4.07;;
31126;SDS011;17775;57.948;12.514;2023-12-20T12:52:31;8.50;;;4.75;;
31126;SDS011;17775;57.948;12.514;2023-12-20T12:54:58;5.55;;;3.85;;
31126;SDS011;17775;57.948;12.514;2023-12-20T12:57:25;4.38;;;3.35;;
31126;SDS011;17775;57.948;12.514;2023-12-20T12:59:51;5.72;;;3.40;;
31126;SDS011;17775;57.948;12.514;2023-12-20T13:02:18;5.03;;;3.75;;
31126;SDS011;17775;57.948;12.514;2023-12-20T13:04:44;5.20;;;3.38;;
31126;SDS011;17775;57.948;12.514;2023-12-20T13:07:11;3.72;;;2.42;;
31126;SDS011;17775;57.948;12.514;2023-12-20T13:09:38;5.80;;;3.50;;
31126;SDS011;17775;57.948;12.514;2023-12-20T13:12:07;6.40;;;3.08;;
31126;SDS011;17775;57.948;12.514;2023-12-20T13:14:37;5.83;;;3.47;;
31126;SDS011;17775;57.948;12.514;2023-12-20T13:17:04;4.65;;;3.65;;
31126;SDS011;17775;57.948;12.514;2023-12-20T13:19:30;6.03;;;3.35;;
31126;SDS011;17775;57.948;12.514;2023-12-20T13:21:57;6.85;;;3.13;;
31126;SDS011;17775;57.948;12.514;2023-12-20T13:24:24;7.00;;;3.95;;
31126;SDS011;17775;57.948;12.514;2023-12-20T13:26:51;8.85;;;5.10;;
31126;SDS011;17775;57.948;12.514;2023-12-20T13:29:17;5.97;;;4.32;;
31126;SDS011;17775;57.948;12.514;2023-12-20T13:31:44;5.57;;;3.83;;
31126;SDS011;17775;57.948;12.514;2023-12-20T13:34:12;5.88;;;3.90;;
31126;SDS011;17775;57.948;12.514;2023-12-20T13:36:39;7.13;;;4.50;;
31126;SDS011;17775;57.948;12.514;2023-12-20T13:39:05;7.85;;;4.60;;
31126;SDS011;17775;57.948;12.514;2023-12-20T13:41:33;6.18;;;4.47;;
31126;SDS011;17775;57.948;12.514;2023-12-20T13:43:59;5.25;;;3.70;;
31126;SDS011;17775;57.948;12.514;2023-12-20T13:46:27;4.03;;;2.90;;
31126;SDS011;17775;57.948;12.514;2023-12-20T13:48:54;4.32;;;3.00;;
31126;SDS011;17775;57.948;12.514;2023-12-20T13:51:21;4.15;;;2.67;;
31126;SDS011;17775;57.948;12.514;2023-12-20T13:53:48;3.45;;;2.42;;
31126;SDS011;17775;57.948;12.514;2023-12-20T13:56:15;4.97;;;2.70;;
31126;SDS011;17775;57.948;12.514;2023-12-20T13:58:41;4.07;;;2.58;;
31126;SDS011;17775;57.948;12.514;2023-12-20T14:01:08;3.67;;;2.33;;
31126;SDS011;17775;57.948;12.514;2023-12-20T14:03:35;4.75;;;2.65;;
31126;SDS011;17775;57.948;12.514;2023-12-20T14:06:01;4.05;;;2.42;;
31126;SDS011;17775;57.948;12.514;2023-12-20T14:08:28;3.90;;;2.47;;
31126;SDS011;17775;57.948;12.514;2023-12-20T14:10:55;5.25;;;2.72;;
31126;SDS011;17775;57.948;12.514;2023-12-20T14:13:21;2.78;;;1.85;;
31126;SDS011;17775;57.948;12.514;2023-12-20T14:15:48;4.82;;;2.58;;
31126;SDS011;17775;57.948;12.514;2023-12-20T14:18:15;5.93;;;2.72;;
31126;SDS011;17775;57.948;12.514;2023-12-20T14:20:43;4.22;;;2.85;;
31126;SDS011;17775;57.948;12.514;2023-12-20T14:23:10;3.75;;;2.60;;
31126;SDS011;17775;57.948;12.514;2023-12-20T14:25:37;3.63;;;2.33;;
31126;SDS011;17775;57.948;12.514;2023-12-20T14:28:16;4.40;;;2.40;;
31126;SDS011;17775;57.948;12.514;2023-12-20T14:30:43;4.72;;;2.30;;
31126;SDS011;17775;57.948;12.514;2023-12-20T14:33:10;3.30;;;2.10;;
31126;SDS011;17775;57.948;12.514;2023-12-20T14:35:36;4.13;;;2.15;;
31126;SDS011;17775;57.948;12.514;2023-12-20T14:38:03;4.65;;;2.25;;